• Join FlightAware (Why Join?)
  • Login
  • US Flag 
10:31AM EST


 

Airport Tracker/Info


-or-


 

Live Flight TrackerFlight Track Log ✈ JBU1505 ✈ 06-May-2013 ✈ KJFK - KABQ

Flight Track Log - Related Links

Times and Time Zones

All times are in EDT time to prevent confusion due to time zone crossing. See the JBU1505 flight status page for this flight to view local times or setup timezone preferences in your user account.

Time Position Orientation Groundspeed Altitude Reporting Facility
EDT Latitude Longitude Course Direction KTS MPH feet Rate Location/Type
08:28PM 40.6280 -73.7780 122° Southeast 151 174 900  Level FlightAware
08:28PM 40.6170 -73.7760 172° South 169 194 1,300 1,320 Climbing FlightAware
08:29PM 40.5990 -73.7860 203° Southwest 197 227 1,800 1,500 Climbing FlightAware
08:29PM 40.5720 -73.8070 211° Southwest 241 277 2,700 2,160 Climbing FlightAware
08:30PM 40.5450 -73.8270 209° Southwest 261 300 3,800 3,120 Climbing FlightAware
08:30PM 40.5170 -73.8540 216° Southwest 263 303 5,600 3,300 Climbing FlightAware
08:31PM 40.4960 -73.8960 237° Southwest 276 318 7,100 3,180 Climbing FlightAware
08:31PM 40.4887 -73.9118 239° Southwest 279 321 7,700 3,420 Climbing FlightAware ADS-B
08:31PM 40.4755 -73.9394 238° Southwest 284 327 8,700 3,060 Climbing FlightAware ADS-B
08:31PM 40.4642 -73.9623 237° Southwest 285 328 9,500 2,580 Climbing FlightAware ADS-B
08:32PM 40.4439 -74.0026 237° Southwest 301 346 10,600 2,100 Climbing FlightAware ADS-B
08:32PM 40.4206 -74.0502 237° Southwest 326 375 11,500 1,800 Climbing FlightAware ADS-B
08:33PM 40.3949 -74.1026 237° Southwest 350 403 12,400 1,740 Climbing FlightAware ADS-B
08:33PM 40.3672 -74.1600 238° Southwest 369 425 13,300 2,280 Climbing FlightAware ADS-B
08:34PM 40.3394 -74.2174 238° Southwest 369 425 14,800 2,580 Climbing FlightAware ADS-B
08:34PM 40.3104 -74.2760 237° Southwest 374 430 16,000 1,860 Climbing FlightAware ADS-B
08:35PM 40.2816 -74.3345 237° Southwest 385 443 16,700 1,080 Climbing FlightAware ADS-B
08:35PM 40.2517 -74.3952 237° Southwest 388 447 17,100 1,440 Climbing FlightAware ADS-B
08:36PM 40.2211 -74.4569 237° Southwest 395 455 18,200 1,920 Climbing FlightAware ADS-B
08:36PM 40.2099 -74.4816 239° Southwest 399 459 18,500 1,560 Climbing FlightAware ADS-B
08:36PM 40.2044 -74.4987 247° West 404 465 18,700 1,500 Climbing FlightAware ADS-B
08:36PM 40.2005 -74.5178 255° West 406 467 18,900 1,860 Climbing FlightAware ADS-B
08:37PM 40.1926 -74.6132 264° West 412 474 20,200 1,920 Climbing FlightAware ADS-B
08:38PM 40.1865 -74.6944 264° West 419 482 21,200 1,800 Climbing FlightAware ADS-B
08:38PM 40.1804 -74.7711 264° West 419 482 22,100 1,620 Climbing FlightAware ADS-B
08:39PM 40.1742 -74.8485 264° West 420 483 22,900 840 Climbing FlightAware ADS-B
08:39PM 40.1679 -74.9259 264° West 419 482 23,000 660 Climbing FlightAware ADS-B
08:40PM 40.1616 -75.0026 264° West 425 489 23,600 1,200 Climbing FlightAware ADS-B
08:40PM 40.1549 -75.0843 264° West 430 495 24,300 1,380 Climbing FlightAware ADS-B
08:41PM 40.1483 -75.1640 264° West 434 499 25,100 1,560 Climbing FlightAware ADS-B
08:41PM 40.1417 -75.2434 264° West 436 502 25,900 1,500 Climbing FlightAware ADS-B
08:42PM 40.1341 -75.3329 264° West 438 504 26,700 1,380 Climbing FlightAware ADS-B
08:42PM 40.1273 -75.4127 264° West 442 509 27,400 1,200 Climbing FlightAware ADS-B
08:43PM 40.1202 -75.4949 264° West 445 512 28,000 960 Climbing FlightAware ADS-B
08:43PM 40.1123 -75.5871 264° West 451 519 28,500 1,020 Climbing FlightAware ADS-B
08:44PM 40.1052 -75.6687 264° West 455 524 29,100 1,080 Climbing FlightAware ADS-B
08:44PM 40.0977 -75.7537 263° West 458 527 29,600 1,140 Climbing FlightAware ADS-B
08:45PM 40.0901 -75.8389 263° West 457 526 30,300 1,080 Climbing FlightAware ADS-B
08:45PM 40.0835 -75.9156 264° West 458 527 30,700 1,020 Climbing FlightAware ADS-B
08:46PM 40.0845 -75.9627 272° West 459 528 31,100 1,380 Climbing FlightAware ADS-B
08:46PM 40.0894 -75.9968 281° West 459 528 31,400 1,080 Climbing FlightAware ADS-B
08:46PM 40.1066 -76.0812 285° West 459 528 31,900 540 Climbing FlightAware ADS-B
08:47PM 40.1236 -76.1618 285° West 458 527 32,000 60 Climbing FlightAware ADS-B
08:47PM 40.1410 -76.2437 286° West 460 529 32,000 60 Level FlightAware ADS-B
08:48PM 40.1592 -76.3294 286° West 462 532 32,100 480 Climbing FlightAware ADS-B
08:48PM 40.1671 -76.3794 282° West 460 529 32,400 960 Climbing FlightAware ADS-B
08:48PM 40.1687 -76.4140 273° West 458 527 32,600 1,200 Climbing FlightAware ADS-B
08:49PM 40.1652 -76.4747 266° West 455 524 33,100 1,200 Climbing FlightAware ADS-B
08:49PM 40.1633 -76.5233 267° West 455 524 33,400 1,080 Climbing FlightAware ADS-B
08:50PM 40.1622 -76.6079 269° West 454 522 34,000 1,140 Climbing FlightAware ADS-B
08:50PM 40.1609 -76.6906 269° West 451 519 34,600 1,020 Climbing FlightAware ADS-B
08:51PM 40.1594 -76.7800 269° West 449 517 35,100 900 Climbing FlightAware ADS-B
08:51PM 40.1578 -76.8618 269° West 449 517 35,600 840 Climbing FlightAware ADS-B
08:52PM 40.1563 -76.9432 269° West 446 513 36,000 360 Climbing FlightAware ADS-B
08:52PM 40.1548 -77.0245 269° West 442 509 36,000  Level FlightAware ADS-B
08:53PM 40.1530 -77.1101 268° West 445 512 36,000  Level FlightAware ADS-B
08:53PM 40.1512 -77.1989 269° West 450 518 36,000  Level FlightAware ADS-B
08:54PM 40.1488 -77.3061 268° West 447 514 36,000  Level FlightAware ADS-B
08:55PM 40.1467 -77.3950 268° West 445 512 36,000  Level FlightAware ADS-B
08:55PM 40.1448 -77.4785 268° West 445 512 36,000  Level FlightAware ADS-B
08:56PM 40.1427 -77.5661 268° West 446 513 36,000  Level FlightAware ADS-B
08:56PM 40.1406 -77.6517 268° West 448 516 36,000  Level FlightAware ADS-B
08:57PM 40.1385 -77.7325 268° West 449 517 36,000  Level FlightAware ADS-B
08:57PM 40.1361 -77.8222 268° West 452 520 36,000  Level FlightAware ADS-B
08:58PM 40.1338 -77.9049 268° West 454 522 36,000  Level FlightAware ADS-B
08:58PM 40.1324 -77.9981 269° West 457 526 36,000  Level FlightAware ADS-B
08:59PM 40.1327 -78.0881 270° West 457 526 36,000  Level FlightAware ADS-B
08:59PM 40.1327 -78.1831 270° West 457 526 36,000  Level FlightAware ADS-B
09:00PM 40.1322 -78.2999 270° West 456 525 36,000  Level FlightAware ADS-B
09:01PM 40.1320 -78.3700 270° West 458 527 36,000  Level FlightAware
09:01PM 40.1317 -78.3969 269° West 457 526 36,000  Level FlightAware ADS-B
09:01PM 40.1310 -78.4790 269° West 458 527 36,000  Level FlightAware
09:02PM 40.1310 -78.6010 270° West 459 528 36,000  Level FlightAware
09:07PM 40.1220 -79.3900 269° West 465 535 36,000  Level FlightAware
09:07PM 40.1200 -79.5150 269° West 467 537 36,000  Level FlightAware
09:08PM 40.1180 -79.6430 269° West 470 541 36,000  Level FlightAware
09:09PM 40.1160 -79.7870 269° West 473 544 36,000  Level FlightAware
09:10PM 40.1140 -79.8850 269° West 474 545 36,000  Level FlightAware
09:10PM 40.1120 -80.0260 269° West 474 545 36,000  Level FlightAware
09:11PM 40.1090 -80.1440 268° West 474 545 36,000  Level FlightAware
09:12PM 40.1060 -80.2830 268° West 474 545 36,000  Level FlightAware
09:13PM 40.1030 -80.4270 268° West 477 549 36,000  Level FlightAware
09:13PM 40.1000 -80.5420 268° West 478 550 36,000  Level FlightAware
09:14PM 40.0970 -80.6720 268° West 479 551 36,000  Level FlightAware
09:15PM 40.0940 -80.7850 268° West 480 552 36,000  Level FlightAware
09:15PM 40.0910 -80.9020 268° West 479 551 36,000  Level FlightAware
09:16PM 40.0880 -81.0330 268° West 480 552 36,000  Level FlightAware
09:17PM 40.0840 -81.1490 267° West 481 554 36,000  Level FlightAware
09:18PM 40.0810 -81.2750 268° West 482 555 36,000  Level FlightAware
09:18PM 40.0770 -81.3990 268° West 482 555 36,000  Level FlightAware
09:19PM 40.0730 -81.5140 267° West 483 556 36,000  Level FlightAware
09:20PM 40.0690 -81.6440 268° West 482 555 36,000  Level FlightAware
09:20PM 40.0650 -81.7560 267° West 482 555 36,000  Level FlightAware
09:21PM 40.0610 -81.8870 268° West 483 556 36,000  Level FlightAware
09:22PM 40.0560 -82.0040 267° West 483 556 36,000  Level FlightAware
09:22PM 40.0520 -82.1240 268° West 483 556 36,000  Level FlightAware
09:23PM 40.0470 -82.2520 267° West 483 556 36,000  Level FlightAware
09:24PM 40.0430 -82.3700 268° West 484 557 36,000  Level FlightAware
09:25PM 40.0370 -82.5010 267° West 484 557 36,000  Level FlightAware
09:25PM 40.0330 -82.6170 267° West 485 558 36,000  Level FlightAware
09:26PM 40.0280 -82.7260 267° West 485 558 36,000  Level FlightAware
09:27PM 40.0220 -82.8610 267° West 484 557 36,000  Level FlightAware
09:27PM 40.0170 -82.9780 267° West 483 556 36,000  Level FlightAware
09:28PM 40.0110 -83.0940 266° West 482 555 36,000 1,020 Level FlightAware
09:29PM 40.0060 -83.2250 267° West 457 526 37,500 1,500 Climbing FlightAware
09:29PM 40.0010 -83.3160 266° West 453 521 38,000 360 Climbing FlightAware
09:30PM 39.9950 -83.4440 267° West 464 534 38,000  Level FlightAware
09:31PM 39.9890 -83.5690 266° West 468 539 38,000  Level FlightAware
09:32PM 39.9830 -83.6850 266° West 467 537 38,000  Level FlightAware
09:32PM 39.9760 -83.8100 266° West 470 541 38,000 60 Level FlightAware
09:33PM 39.9700 -83.9250 266° West 470 541 38,100  Climbing FlightAware
09:34PM 39.9640 -84.0480 266° West 469 540 38,000 -120 Descending FlightAware
09:34PM 39.9580 -84.1620 266° West 469 540 38,000  Level FlightAware
09:35PM 39.9510 -84.2730 265° West 469 540 38,000  Level FlightAware
09:36PM 39.9440 -84.4020 266° West 469 540 38,000  Level FlightAware
09:36PM 39.9380 -84.5110 266° West 468 539 38,000  Level FlightAware
09:37PM 39.9300 -84.6370 265° West 469 540 38,000  Level FlightAware
09:38PM 39.9240 -84.7490 266° West 469 540 38,000  Level FlightAware
09:39PM 39.9170 -84.8620 265° West 470 541 38,000  Level FlightAware
09:39PM 39.9090 -84.9880 265° West 469 540 38,000  Level FlightAware
09:40PM 39.9020 -85.0880 265° West 470 541 38,000  Level FlightAware
09:41PM 39.8850 -85.2150 260° West 469 540 38,000  Level FlightAware
09:41PM 39.8710 -85.3300 261° West 468 539 38,000  Level FlightAware
09:42PM 39.8570 -85.4490 261° West 466 536 38,000  Level FlightAware
09:43PM 39.8410 -85.5770 261° West 464 534 38,000  Level FlightAware
09:43PM 39.8290 -85.6800 261° West 462 532 38,000  Level FlightAware
09:44PM 39.8170 -85.7790 261° West 462 532 38,000  Level FlightAware
09:45PM 39.8000 -85.9150 261° West 461 531 38,000  Level FlightAware
09:46PM 39.7870 -86.0190 261° West 461 531 38,000  Level FlightAware
09:46PM 39.7710 -86.1500 261° West 462 532 38,000  Level FlightAware
09:47PM 39.7580 -86.2510 261° West 464 534 38,000  Level FlightAware
09:48PM 39.7430 -86.3710 261° West 465 535 38,000  Level FlightAware
09:48PM 39.7270 -86.4930 260° West 465 535 38,000  Level FlightAware
09:49PM 39.7130 -86.6000 260° West 464 534 38,000  Level FlightAware
09:50PM 39.6970 -86.7200 260° West 462 532 38,000  Level FlightAware
09:50PM 39.6830 -86.8300 261° West 462 532 38,000  Level FlightAware
09:51PM 39.6660 -86.9550 260° West 463 533 38,000  Level FlightAware
09:52PM 39.6520 -87.0620 260° West 462 532 38,000 60 Level FlightAware
09:53PM 39.6370 -87.1730 260° West 460 529 38,100  Climbing FlightAware
09:53PM 39.6200 -87.2970 260° West 457 526 38,000 -120 Descending FlightAware
09:54PM 39.6050 -87.4070 260° West 455 524 38,000  Level FlightAware
09:55PM 39.5890 -87.5200 260° West 454 522 38,000  Level FlightAware
09:55PM 39.5740 -87.6300 260° West 452 520 38,000  Level FlightAware
09:56PM 39.5570 -87.7530 260° West 452 520 38,000  Level FlightAware
09:57PM 39.5420 -87.8580 260° West 452 520 38,000  Level FlightAware
09:57PM 39.5270 -87.9660 260° West 453 521 38,000  Level FlightAware
09:58PM 39.5110 -88.0790 260° West 454 522 38,000  Level FlightAware
09:59PM 39.4950 -88.1900 259° West 454 522 38,000  Level FlightAware
10:00PM 39.4760 -88.3140 259° West 454 522 38,000  Level FlightAware
10:00PM 39.4610 -88.4180 259° West 453 521 38,000  Level FlightAware
10:01PM 39.4460 -88.5250 260° West 456 525 38,000  Level FlightAware
10:02PM 39.4280 -88.6420 259° West 456 525 38,000 60 Level FlightAware
10:02PM 39.4120 -88.7500 259° West 454 522 38,100  Climbing FlightAware
10:03PM 39.3940 -88.8670 259° West 452 520 38,000 -120 Descending FlightAware
10:04PM 39.3780 -88.9760 259° West 449 517 38,000  Level FlightAware
10:04PM 39.3620 -89.0830 259° West 448 516 38,000  Level FlightAware
10:05PM 39.3440 -89.1980 259° West 447 514 38,000  Level FlightAware
10:06PM 39.3280 -89.3010 259° West 447 514 38,000  Level FlightAware
10:07PM 39.3130 -89.4010 259° West 448 516 38,000  Level FlightAware
10:07PM 39.2930 -89.5280 259° West 450 518 38,000 60 Level FlightAware
10:08PM 39.2780 -89.6250 259° West 449 517 38,100 60 Climbing FlightAware
10:09PM 39.2530 -89.7760 258° West 448 516 38,100 -60 Level FlightAware
10:10PM 39.2350 -89.8930 259° West 445 512 38,000 -120 Descending FlightAware
10:10PM 39.2180 -89.9950 258° West 445 512 38,000  Level FlightAware
10:11PM 39.2010 -90.1000 258° West 445 512 38,000  Level FlightAware
10:12PM 39.1780 -90.2400 258° West 445 512 38,000  Level FlightAware
10:13PM 39.1590 -90.3580 258° West 442 509 38,000  Level FlightAware
10:13PM 39.1410 -90.4690 258° West 438 504 38,000  Level FlightAware
10:14PM 39.1270 -90.5530 258° West 437 503 38,000  Level FlightAware
10:15PM 39.1040 -90.6900 258° West 438 504 38,000  Level FlightAware
10:15PM 39.0870 -90.7910 258° West 442 509 38,000  Level FlightAware
10:16PM 39.0640 -90.9260 258° West 448 516 38,000 60 Level FlightAware
10:17PM 39.0460 -91.0340 258° West 449 517 38,100 60 Climbing FlightAware
10:18PM 39.0270 -91.1380 257° West 449 517 38,100 -120 Level FlightAware
10:18PM 39.0080 -91.2560 258° West 442 509 38,000 -120 Descending FlightAware
10:19PM 38.9890 -91.3620 257° West 440 506 38,000  Level FlightAware
10:20PM 38.9710 -91.4680 258° West 440 506 38,000  Level FlightAware
10:21PM 38.9500 -91.5840 257° West 440 506 38,000  Level FlightAware
10:21PM 38.9350 -91.6720 258° West 439 505 38,000  Level FlightAware
10:22PM 38.9130 -91.7930 257° West 441 507 38,000  Level FlightAware
10:23PM 38.8930 -91.9030 257° West 441 507 38,000 60 Level FlightAware
10:23PM 38.8750 -92.0050 257° West 438 504 38,100 60 Climbing FlightAware
10:24PM 38.8540 -92.1240 257° West 433 498 38,100 -120 Level FlightAware
10:25PM 38.8350 -92.2270 257° West 424 488 38,000 -60 Descending FlightAware
10:26PM 38.8020 -92.4040 257° West 423 487 38,000  Level FlightAware
10:27PM 38.7840 -92.5040 257° West 424 488 38,000  Level FlightAware
10:28PM 38.7600 -92.6320 257° West 426 490 38,000  Level FlightAware
10:28PM 38.7420 -92.7310 257° West 424 488 38,000 60 Level FlightAware
10:29PM 38.7230 -92.8290 256° West 420 483 38,100  Climbing FlightAware
10:30PM 38.7060 -92.9220 257° West 418 481 38,000 -120 Descending FlightAware
10:30PM 38.6850 -93.0310 256° West 419 482 38,000  Level FlightAware
10:31PM 38.6670 -93.1250 256° West 419 482 38,000  Level FlightAware
10:32PM 38.6460 -93.2380 257° West 419 482 38,000  Level FlightAware
10:32PM 38.6270 -93.3330 256° West 419 482 38,000  Level FlightAware
10:33PM 38.6070 -93.4380 256° West 422 486 38,000  Level FlightAware
10:34PM 38.5880 -93.5370 256° West 423 487 38,000  Level FlightAware
10:35PM 38.5660 -93.6470 256° West 423 487 38,000  Level FlightAware
10:35PM 38.5470 -93.7440 256° West 422 486 38,000  Level FlightAware
10:36PM 38.5290 -93.8380 256° West 424 488 38,000  Level FlightAware
10:37PM 38.5070 -93.9490 256° West 429 494 38,000 60 Level FlightAware
10:37PM 38.4870 -94.0480 256° West 429 494 38,100 60 Climbing FlightAware
10:38PM 38.4680 -94.1440 256° West 429 494 38,100 -120 Level FlightAware
10:39PM 38.4450 -94.2570 255° West 428 493 38,000 -120 Descending FlightAware
10:39PM 38.4250 -94.3550 255° West 428 493 38,000  Level FlightAware
10:40PM 38.4040 -94.4600 256° West 427 491 38,000  Level FlightAware
10:41PM 38.3840 -94.5590 256° West 428 493 38,000  Level FlightAware
10:42PM 38.3600 -94.6720 255° West 428 493 38,000  Level FlightAware
10:42PM 38.3410 -94.7650 255° West 426 490 38,000  Level FlightAware
10:43PM 38.3210 -94.8630 255° West 425 489 38,000  Level FlightAware
10:44PM 38.2990 -94.9700 255° West 424 488 38,000  Level FlightAware
10:44PM 38.2780 -95.0670 255° West 426 490 38,000  Level FlightAware
10:45PM 38.2580 -95.1650 255° West 427 491 38,000  Level FlightAware
10:46PM 38.2340 -95.2760 255° West 427 491 38,000  Level FlightAware
10:46PM 38.2170 -95.3570 255° West 427 491 38,000 60 Level FlightAware
10:47PM 38.3120 -94.9070 75° East 38,000 120 Level FlightAware
10:47PM 38.1910 -95.4810 255° West 425 489 38,100  Climbing FlightAware
10:48PM 38.1760 -95.5510 255° West 424 488 38,000 -120 Descending FlightAware
10:49PM 38.1510 -95.6630 254° West 422 486 38,000  Level FlightAware
10:49PM 38.1270 -95.7790 255° West 417 480 38,000  Level FlightAware
10:50PM 38.1070 -95.8660 254° West 417 480 38,000  Level FlightAware
10:51PM 38.0790 -95.9940 255° West 418 481 38,000  Level FlightAware
10:53PM 38.0860 -95.9630 74° East 38,000  Level FlightAware
10:53PM 38.0050 -96.3330 255° West 422 486 38,100  Climbing FlightAware
10:54PM 37.9830 -96.4330 254° West 421 484 38,000 -120 Descending FlightAware
10:55PM 37.9660 -96.5150 255° West 421 484 38,000  Level FlightAware
10:55PM 37.9410 -96.6190 253° West 422 486 38,000  Level FlightAware
10:56PM 37.9060 -96.7760 254° West 424 488 38,000  Level FlightAware
10:57PM 37.8870 -96.8590 254° West 424 488 38,000  Level FlightAware
10:58PM 37.8630 -96.9650 254° West 422 486 38,000  Level FlightAware
10:59PM 37.8360 -97.0810 254° West 423 487 38,000  Level FlightAware
11:02PM 37.7070 -97.6390 254° West 422 486 38,000  Level FlightAware
11:07PM 37.5700 -98.2140 253° West 420 483 38,000  Level FlightAware
11:07PM 37.5390 -98.3410 253° West 421 484 38,000  Level FlightAware
11:08PM 37.5210 -98.4200 254° West 421 484 38,000  Level FlightAware
11:09PM 37.4940 -98.5250 252° West 418 481 38,000  Level FlightAware
11:09PM 37.4720 -98.6180 253° West 418 481 38,000  Level FlightAware
11:10PM 37.4490 -98.7120 253° West 419 482 38,000  Level FlightAware
11:11PM 37.4250 -98.8100 253° West 419 482 38,000  Level FlightAware
11:12PM 37.4010 -98.9090 253° West 419 482 38,000  Level FlightAware
11:12PM 37.3820 -98.9880 253° West 419 482 38,000  Level FlightAware
11:13PM 37.3620 -99.0670 252° West 419 482 38,000  Level FlightAware
11:14PM 37.3430 -99.1470 253° West 419 482 38,000  Level FlightAware
11:14PM 37.3240 -99.2260 253° West 419 482 38,000  Level FlightAware
11:15PM 37.3040 -99.3050 252° West 419 482 38,000  Level FlightAware
11:16PM 37.2800 -99.4040 253° West 419 482 38,000  Level FlightAware
11:17PM 37.2610 -99.4830 253° West 419 482 38,000  Level FlightAware
11:17PM 37.2420 -99.5630 253° West 419 482 38,000  Level FlightAware
11:18PM 37.2230 -99.6420 253° West 419 482 38,000  Level FlightAware
11:19PM 37.1980 -99.7410 252° West 419 482 38,000  Level FlightAware
11:19PM 37.1790 -99.8200 253° West 419 482 38,000  Level FlightAware
11:20PM 37.1600 -99.8990 253° West 419 482 38,000  Level FlightAware
11:21PM 37.0814 -100.1653 253° West 421 484 38,000  Level Albuquerque Center
11:21PM 37.0619 -100.2361 251° West 426 490 38,000  Level Kansas City Center
11:22PM 37.0208 -100.3942 252° West 426 490 38,000  Level Kansas City Center
11:23PM 36.9867 -100.5267 252° West 421 484 38,000  Level Kansas City Center
11:24PM 36.9500 -100.6614 251° West 423 487 38,000  Level Kansas City Center
11:25PM 36.9083 -100.8192 252° West 426 490 38,000  Level Kansas City Center
11:26PM 36.8722 -100.9531 251° West 426 490 38,000  Level Kansas City Center
11:27PM 36.8361 -101.0869 251° West 424 488 38,000  Level Kansas City Center
11:28PM 36.7944 -101.2428 252° West 424 488 38,000  Level Kansas City Center
11:29PM 36.7572 -101.3761 251° West 424 488 38,000  Level Kansas City Center
11:30PM 36.7389 -101.4450 252° West 427 491 38,000 60 Level Albuquerque Center
11:31PM 36.7019 -101.5806 251° West 430 495 38,100  Climbing Albuquerque Center
11:32PM 36.6586 -101.7372 251° West 428 493 38,000 -60 Descending Albuquerque Center
11:33PM 36.6214 -101.8708 251° West 428 493 38,000  Level Albuquerque Center
11:34PM 36.5839 -102.0042 251° West 429 494 38,000  Level Albuquerque Center
11:35PM 36.5442 -102.1461 251° West 434 499 38,100  Climbing Albuquerque Center
11:36PM 36.4964 -102.3144 251° West 433 498 38,100 -60 Level Albuquerque Center
11:37PM 36.4581 -102.4531 251° West 429 494 38,000 -60 Descending Albuquerque Center
11:38PM 36.4192 -102.5894 251° West 423 487 38,000  Level Albuquerque Center
11:39PM 36.3789 -102.7261 250° West 423 487 38,000  Level Albuquerque Center
11:40PM 36.3406 -102.8622 251° West 422 486 38,000  Level Albuquerque Center
11:41PM 36.2981 -103.0058 250° West 421 484 38,000  Level Albuquerque Center
11:42PM 36.2592 -103.1425 251° West 419 482 38,000  Level Albuquerque Center
11:43PM 36.2214 -103.2783 251° West 417 480 38,000  Level Albuquerque Center
11:44PM 36.1822 -103.4119 250° West 413 475 38,000  Level Albuquerque Center
11:45PM 36.1428 -103.5444 250° West 408 470 38,000  Level Albuquerque Center
11:46PM 36.1019 -103.6753 249° West 408 470 38,000  Level Albuquerque Center
11:47PM 36.0622 -103.8089 250° West 410 472 38,000  Level Albuquerque Center
11:48PM 36.0242 -103.9436 251° West 414 476 38,000  Level Albuquerque Center
11:49PM 35.9992 -104.1050 259° West 409 471 38,000  Level Albuquerque Center
11:50PM 35.9758 -104.2431 258° West 409 471 38,000  Level Albuquerque Center
11:51PM 35.9517 -104.3825 258° West 413 475 38,000  Level Albuquerque Center
11:52PM 35.9281 -104.5175 258° West 406 467 38,000  Level Albuquerque Center
11:53PM 35.9081 -104.6442 259° West 385 443 38,000  Level Albuquerque Center
11:54PM 35.8867 -104.7669 258° West 370 426 38,000  Level Albuquerque Center
11:55PM 35.8633 -104.8944 257° West 375 432 38,000 -720 Level Albuquerque Center
11:56PM 35.8392 -105.0278 257° West 390 449 36,600 -1,380 Descending Albuquerque Center
11:57PM 35.8167 -105.1589 258° West 392 451 35,200 -1,440 Descending Albuquerque Center
11:58PM 35.7942 -105.2908 258° West 392 451 33,700 -1,500 Descending Albuquerque Center
11:59PM 35.7689 -105.4244 257° West 396 456 32,200 -1,680 Descending Albuquerque Center
12:05AM 35.6420 -106.1250 257° West 362 417 23,100 -1,680 Descending FlightAware
12:05AM 35.6310 -106.2100 261° West 339 390 22,000 -1,740 Descending FlightAware
12:06AM 35.6230 -106.2860 263° West 333 383 20,700 -1,980 Descending FlightAware
12:07AM 35.6150 -106.3680 263° West 325 374 19,200 -1,980 Descending FlightAware
12:07AM 35.6070 -106.4420 262° West 321 369 17,900 -2,040 Descending FlightAware
12:08AM 35.5980 -106.5160 262° West 317 365 16,500 -1,980 Descending FlightAware
12:08AM 35.5880 -106.5380 241° Southwest 313 360 16,100 -1,620 Descending FlightAware
12:09AM 35.5740 -106.5520 219° Southwest 313 360 15,700 -1,800 Descending FlightAware
12:09AM 35.5510 -106.5620 199° South 326 375 15,200 -1,980 Descending FlightAware
12:10AM 35.4910 -106.5830 196° South 336 387 13,900 -1,800 Descending FlightAware
12:10AM 35.4250 -106.6090 198° South 320 368 12,700 -1,500 Descending FlightAware
12:11AM 35.3710 -106.6290 197° South 284 327 11,800 -1,920 Descending FlightAware
12:12AM 35.3220 -106.6510 200° South 285 328 10,200 -2,220 Descending FlightAware
12:12AM 35.3040 -106.6600 202° Southwest 287 330 9,800 -1,620 Descending FlightAware
12:12AM 35.2680 -106.6790 203° Southwest 284 327 9,000 -1,620 Descending FlightAware
12:13AM 35.2490 -106.6890 203° Southwest 283 326 8,600 -1,500 Descending FlightAware
12:13AM 35.2200 -106.7040 203° Southwest 281 323 8,000 -780 Descending FlightAware
12:14AM 35.1870 -106.7210 203° Southwest 252 290 7,900 -120 Descending FlightAware
12:14AM 35.1580 -106.7360 203° Southwest 249 287 7,900 -120 Level FlightAware
12:14AM 35.1260 -106.7520 202° Southwest 246 283 7,800 -420 Descending FlightAware
12:15AM 35.1110 -106.7600 204° Southwest 235 270 7,600 -600 Descending FlightAware
12:15AM 35.0960 -106.7660 198° South 225 259 7,500 -300 Descending FlightAware
12:15AM 35.0740 -106.7570 161° South 209 241 7,400 -360 Descending FlightAware
12:16AM 35.0540 -106.7360 139° Southeast 175 201 7,200 -780 Descending FlightAware
12:16AM 35.0450 -106.7140 117° Southeast 167 192 6,700 -1,200 Descending FlightAware
12:16AM 35.0440 -106.7030 96° East 167 192 6,500 -840 Descending FlightAware
12:17AM 35.0450 -106.6720 88° East 162 186 6,100 -480 Descending FlightAware
12:18AM 35.0440 -106.6470 93° East 162 186 6,000 -540 Descending FlightAware
12:19AM 35.0444 -106.5861 93° East 169 194 5,300 -720 Descending Albuquerque Center